Time;durP1;ratioP1;P1;durP2;ratioP2;P2;SDS_P1;SDS_P2;PMS_P1;PMS_P2;Temp;Humidity;BMP_temperature;BMP_pressure;BME280_temperature;BME280_humidity;BME280_pressure;Samples;Min_cycle;Max_cycle;Signal;HPM_P1;HPM_P2
2022/04/23 00:02:05;;;;;;;7.82;3.95;;;18.80;59.40;;;;;;5019735;28;20568;-63
2022/04/23 00:04:30;;;;;;;7.97;4.40;;;18.80;59.40;;;;;;5019959;28;20043;-63
2022/04/23 00:06:57;;;;;;;7.68;4.00;;;18.80;59.30;;;;;;5018926;28;20029;-63
2022/04/23 00:09:23;;;;;;;8.25;4.22;;;18.80;59.30;;;;;;5019814;28;20127;-63
2022/04/23 00:11:48;;;;;;;7.88;3.88;;;18.70;59.30;;;;;;5017365;28;20065;-63
2022/04/23 00:14:14;;;;;;;9.23;4.55;;;18.70;59.30;;;;;;5017411;28;20026;-63
2022/04/23 00:16:40;;;;;;;8.73;4.25;;;18.70;59.30;;;;;;5016858;28;20053;-63
2022/04/23 00:19:05;;;;;;;7.15;3.75;;;18.70;59.30;;;;;;5017459;28;20075;-63
2022/04/23 00:21:31;;;;;;;8.93;4.05;;;18.70;59.30;;;;;;5014882;28;20133;-63
2022/04/23 00:23:56;;;;;;;9.27;4.05;;;18.70;59.30;;;;;;5014736;28;20041;-64
2022/04/23 00:26:22;;;;;;;8.98;3.88;;;18.70;59.30;;;;;;5011856;28;20033;-63
2022/04/23 00:28:48;;;;;;;8.57;4.05;;;18.70;59.30;;;;;;5018647;28;20250;-63
2022/04/23 00:31:16;;;;;;;8.15;4.10;;;18.70;59.30;;;;;;5011344;28;20030;-63
2022/04/23 00:33:42;;;;;;;9.77;4.30;;;18.70;59.20;;;;;;5016058;28;20109;-63
2022/04/23 00:36:09;;;;;;;8.05;4.40;;;18.60;59.20;;;;;;5017923;28;20500;-63
2022/04/23 00:38:37;;;;;;;7.40;4.15;;;18.70;59.30;;;;;;5013942;28;20052;-63
2022/04/23 00:41:03;;;;;;;9.48;4.15;;;18.60;59.30;;;;;;5010794;28;20083;-63
2022/04/23 00:43:30;;;;;;;9.85;4.30;;;18.60;59.20;;;;;;5017217;28;20046;-63
2022/04/23 00:45:56;;;;;;;8.07;3.67;;;18.60;59.40;;;;;;5018804;28;20537;-63
2022/04/23 00:48:22;;;;;;;7.60;3.92;;;18.60;59.30;;;;;;5012352;28;20042;-63
2022/04/23 00:50:50;;;;;;;7.63;3.92;;;18.60;59.20;;;;;;5021578;28;20029;-64
2022/04/23 00:53:16;;;;;;;8.70;4.22;;;18.60;59.20;;;;;;5020564;28;20030;-63
2022/04/23 00:55:42;;;;;;;7.35;3.83;;;18.60;59.20;;;;;;5016863;28;20037;-63
2022/04/23 00:58:07;;;;;;;7.68;4.13;;;18.60;59.30;;;;;;5017796;28;20406;-63
2022/04/23 01:00:33;;;;;;;8.55;4.10;;;18.60;59.30;;;;;;5020998;28;20406;-63
2022/04/23 01:02:59;;;;;;;9.52;3.83;;;18.50;59.20;;;;;;5020490;28;20424;-63
2022/04/23 01:05:25;;;;;;;10.00;4.28;;;18.60;59.20;;;;;;5011817;28;20036;-63
2022/04/23 01:07:52;;;;;;;8.02;4.38;;;18.50;59.20;;;;;;5012312;28;20753;-63
2022/04/23 01:10:17;;;;;;;8.00;4.03;;;18.50;60.20;;;;;;5021185;28;20025;-63
2022/04/23 01:12:45;;;;;;;9.35;4.30;;;18.50;59.20;;;;;;5015250;28;20399;-63
2022/04/23 01:15:11;;;;;;;10.35;4.20;;;18.50;59.20;;;;;;5020824;28;20102;-63
2022/04/23 01:17:37;;;;;;;8.80;4.50;;;18.50;59.20;;;;;;5026523;28;20017;-63
2022/04/23 01:20:22;;;;;;;8.45;4.05;;;18.50;59.10;;;;;;5014367;28;20403;-63
2022/04/23 01:22:47;;;;;;;10.10;4.27;;;18.50;59.20;;;;;;5017609;28;20046;-63
2022/04/23 01:25:14;;;;;;;8.85;4.22;;;18.50;59.20;;;;;;5023007;28;20368;-63
2022/04/23 01:27:40;;;;;;;8.70;4.25;;;18.50;59.20;;;;;;5013697;28;20030;-64
2022/04/23 01:30:07;;;;;;;7.97;4.00;;;18.50;59.20;;;;;;5015324;28;20025;-63
2022/04/23 01:32:32;;;;;;;7.72;3.75;;;18.50;59.20;;;;;;5014485;28;20026;-63
2022/04/23 01:34:58;;;;;;;7.97;4.03;;;18.50;59.20;;;;;;5013250;28;20017;-63
2022/04/23 01:37:24;;;;;;;9.90;4.20;;;18.50;59.20;;;;;;5022170;28;20588;-64
2022/04/23 01:39:49;;;;;;;8.40;4.38;;;18.40;59.20;;;;;;5017381;28;20039;-63
2022/04/23 01:42:19;;;;;;;8.57;4.40;;;18.40;59.20;;;;;;5015226;28;20036;-63
2022/04/23 01:44:49;;;;;;;8.90;4.35;;;18.40;59.10;;;;;;5014483;28;20033;-63
2022/04/23 01:47:14;;;;;;;8.45;4.30;;;18.40;59.20;;;;;;5016645;28;20037;-63
2022/04/23 01:49:40;;;;;;;7.85;4.07;;;18.40;59.10;;;;;;5015282;28;21155;-63
2022/04/23 01:52:06;;;;;;;8.23;3.90;;;18.40;59.10;;;;;;5030605;28;20080;-63
2022/04/23 01:54:32;;;;;;;8.07;4.03;;;18.40;59.20;;;;;;5016831;28;20030;-63
2022/04/23 01:56:59;;;;;;;8.15;3.70;;;18.40;59.20;;;;;;5021912;28;20029;-63
2022/04/23 01:59:25;;;;;;;8.48;4.10;;;18.40;59.20;;;;;;5017512;28;20054;-63
2022/04/23 02:01:51;;;;;;;9.48;4.10;;;18.40;59.20;;;;;;5017856;28;20052;-63
2022/04/23 02:04:16;;;;;;;10.00;4.40;;;18.40;59.10;;;;;;5015021;28;20109;-64
2022/04/23 02:06:42;;;;;;;9.48;4.32;;;18.40;59.10;;;;;;5017052;28;20514;-63
2022/04/23 02:09:08;;;;;;;8.27;3.95;;;18.40;59.20;;;;;;5018112;28;20033;-63
2022/04/23 02:11:34;;;;;;;7.90;3.90;;;18.40;59.20;;;;;;5018616;28;20033;-63
2022/04/23 02:14:02;;;;;;;9.50;3.97;;;18.30;59.10;;;;;;5019510;28;20029;-63
2022/04/23 02:16:28;;;;;;;9.18;4.50;;;18.30;59.20;;;;;;5020056;28;20040;-63
2022/04/23 02:18:54;;;;;;;8.35;4.15;;;18.30;59.10;;;;;;5018843;28;20446;-63
2022/04/23 02:21:19;;;;;;;8.43;4.30;;;18.30;59.10;;;;;;5018245;28;20033;-63
2022/04/23 02:23:45;;;;;;;8.35;3.90;;;18.30;59.10;;;;;;5013191;28;20046;-63
2022/04/23 02:26:11;;;;;;;7.78;3.60;;;18.30;59.20;;;;;;5019230;28;20037;-63
2022/04/23 02:28:39;;;;;;;9.60;4.20;;;18.30;59.10;;;;;;5023807;28;20038;-63
2022/04/23 02:31:06;;;;;;;7.68;3.88;;;18.30;59.20;;;;;;5021999;28;20042;-63
2022/04/23 02:33:32;;;;;;;9.38;4.60;;;18.30;59.20;;;;;;5017745;28;20025;-63
2022/04/23 02:35:57;;;;;;;9.63;3.95;;;18.30;59.20;;;;;;5019230;28;20025;-63
2022/04/23 02:38:23;;;;;;;9.60;4.20;;;18.30;59.20;;;;;;5024886;28;20033;-63
2022/04/23 02:40:49;;;;;;;8.85;4.10;;;18.30;59.20;;;;;;5023725;28;20021;-63
2022/04/23 02:43:14;;;;;;;9.57;4.05;;;18.30;59.20;;;;;;5026901;28;20463;-63
2022/04/23 02:45:41;;;;;;;8.20;4.05;;;18.30;59.20;;;;;;5015626;28;20459;-63
2022/04/23 02:48:07;;;;;;;9.80;3.85;;;18.20;59.20;;;;;;5017611;28;20068;-63
2022/04/23 02:50:37;;;;;;;8.00;4.38;;;18.20;59.10;;;;;;5014079;28;20490;-63
2022/04/23 02:53:03;;;;;;;8.77;4.13;;;18.20;59.10;;;;;;5015800;28;20013;-63
2022/04/23 02:55:31;;;;;;;8.48;4.35;;;18.20;59.10;;;;;;5017358;28;20041;-63
2022/04/23 02:58:09;;;;;;;8.63;3.97;;;18.20;59.00;;;;;;5021491;28;20110;-63
2022/04/23 03:00:39;;;;;;;8.55;4.10;;;18.20;59.10;;;;;;5019175;28;20045;-63
2022/04/23 03:03:05;;;;;;;8.43;3.92;;;18.20;59.10;;;;;;5018222;28;20047;-63
2022/04/23 03:05:31;;;;;;;8.38;3.75;;;18.20;59.10;;;;;;5016919;28;20519;-63
2022/04/23 03:07:59;;;;;;;10.27;4.18;;;18.20;59.10;;;;;;5018680;28;20442;-63
2022/04/23 03:10:25;;;;;;;7.20;3.80;;;18.20;59.10;;;;;;5023553;28;20034;-63
2022/04/23 03:12:51;;;;;;;8.25;3.78;;;18.20;59.10;;;;;;5019428;28;20041;-63
2022/04/23 03:15:17;;;;;;;8.95;4.10;;;18.20;59.10;;;;;;5019132;28;20021;-63
2022/04/23 03:17:43;;;;;;;9.05;3.80;;;18.20;59.10;;;;;;5016829;28;20034;-63
2022/04/23 03:20:09;;;;;;;8.18;3.67;;;18.20;59.20;;;;;;5014754;28;20095;-63
2022/04/23 03:22:39;;;;;;;7.63;3.85;;;18.20;59.20;;;;;;5015336;28;20034;-63
2022/04/23 03:25:05;;;;;;;7.93;3.80;;;18.10;59.20;;;;;;5017312;28;20031;-63
2022/04/23 03:27:31;;;;;;;8.65;3.72;;;18.10;59.10;;;;;;5021792;28;20030;-63
2022/04/23 03:30:00;;;;;;;8.70;4.25;;;18.10;59.10;;;;;;5016916;28;20031;-64
2022/04/23 03:32:26;;;;;;;7.38;3.70;;;18.10;59.20;;;;;;5022266;28;20029;-63
2022/04/23 03:34:52;;;;;;;7.40;3.80;;;18.10;59.20;;;;;;5011992;28;20457;-63
2022/04/23 03:37:18;;;;;;;6.47;3.50;;;18.10;59.20;;;;;;5015415;28;20022;-63
2022/04/23 03:39:47;;;;;;;8.93;3.67;;;18.10;59.20;;;;;;5016867;28;20030;-63
2022/04/23 03:42:12;;;;;;;7.32;3.28;;;18.10;59.20;;;;;;5012717;28;20486;-63
2022/04/23 03:44:38;;;;;;;8.18;3.80;;;18.10;59.20;;;;;;5014559;28;20120;-63
2022/04/23 03:47:04;;;;;;;6.82;3.40;;;18.10;59.40;;;;;;5019226;28;20136;-63
2022/04/23 03:49:30;;;;;;;6.88;3.70;;;18.10;59.40;;;;;;5016551;28;20057;-63
2022/04/23 03:51:56;;;;;;;7.85;3.70;;;18.00;59.30;;;;;;5023485;28;20113;-63
2022/04/23 03:54:22;;;;;;;8.30;3.50;;;18.10;59.40;;;;;;5013762;28;20030;-63
2022/04/23 03:56:48;;;;;;;7.78;3.40;;;18.00;59.20;;;;;;5015470;28;20033;-63
2022/04/23 03:59:14;;;;;;;7.18;3.60;;;18.00;59.30;;;;;;5013397;28;20040;-63
2022/04/23 04:01:41;;;;;;;9.68;3.97;;;18.00;59.20;;;;;;5023304;28;20030;-63
2022/04/23 04:04:06;;;;;;;7.78;3.47;;;18.00;59.30;;;;;;5013740;28;20387;-63
2022/04/23 04:06:33;;;;;;;7.53;3.75;;;18.10;59.30;;;;;;5020482;28;20112;-63
2022/04/23 04:08:59;;;;;;;6.85;3.67;;;18.00;59.20;;;;;;5020859;28;20418;-63
2022/04/23 04:11:24;;;;;;;8.25;3.85;;;18.00;59.40;;;;;;5016042;28;20029;-63
2022/04/23 04:13:50;;;;;;;7.72;3.30;;;18.00;59.50;;;;;;5011465;28;20034;-63
2022/04/23 04:16:17;;;;;;;8.50;3.75;;;18.00;59.30;;;;;;5015530;28;20029;-64
2022/04/23 04:18:43;;;;;;;8.95;3.50;;;18.00;59.30;;;;;;5034690;28;20030;-63
2022/04/23 04:21:09;;;;;;;7.88;3.38;;;18.00;59.30;;;;;;5020677;28;20064;-63
2022/04/23 04:23:34;;;;;;;7.53;3.60;;;17.90;59.40;;;;;;5013656;28;20064;-63
2022/04/23 04:26:00;;;;;;;7.82;3.55;;;18.00;59.30;;;;;;5013166;28;20482;-63
2022/04/23 04:28:26;;;;;;;8.15;3.70;;;18.00;59.40;;;;;;5016105;28;20489;-63
2022/04/23 04:33:36;;;;;;;7.63;3.55;;;18.00;59.30;;;;;;5015247;28;20318;-63
2022/04/23 04:36:02;;;;;;;5.97;3.38;;;18.00;59.50;;;;;;5018347;28;20303;-63
2022/04/23 04:38:27;;;;;;;8.43;3.60;;;17.90;59.40;;;;;;5018430;28;20045;-63
2022/04/23 04:40:53;;;;;;;7.97;3.50;;;17.90;59.40;;;;;;5017661;28;20049;-63
2022/04/23 04:43:19;;;;;;;8.20;3.83;;;18.00;59.30;;;;;;5012262;28;20037;-63
2022/04/23 04:45:44;;;;;;;8.15;4.10;;;17.90;59.20;;;;;;5018289;28;20076;-63
2022/04/23 04:48:10;;;;;;;8.38;3.70;;;17.90;59.40;;;;;;5016798;28;20046;-63
2022/04/23 04:50:36;;;;;;;7.18;3.53;;;17.90;59.50;;;;;;5016679;28;20045;-63
2022/04/23 04:53:01;;;;;;;6.32;3.20;;;17.90;59.30;;;;;;5022216;28;20364;-63
2022/04/23 04:55:27;;;;;;;7.78;3.60;;;17.90;59.40;;;;;;5022322;28;20029;-63
2022/04/23 04:57:52;;;;;;;7.70;3.83;;;17.90;59.40;;;;;;5022782;28;20037;-63
2022/04/23 05:00:18;;;;;;;7.28;3.25;;;17.80;59.40;;;;;;5022601;28;20025;-63
2022/04/23 05:02:44;;;;;;;7.15;3.53;;;17.90;59.40;;;;;;5015663;28;20133;-63
2022/04/23 05:05:10;;;;;;;7.28;3.65;;;17.90;59.40;;;;;;5014271;28;20028;-63
2022/04/23 05:07:36;;;;;;;8.00;3.35;;;17.90;59.40;;;;;;5009089;28;20080;-63
2022/04/23 05:10:02;;;;;;;6.43;3.22;;;17.90;59.40;;;;;;5019715;28;20379;-63
2022/04/23 05:12:28;;;;;;;8.05;3.42;;;17.80;59.30;;;;;;5022275;28;20044;-63
2022/04/23 05:14:53;;;;;;;7.30;3.35;;;17.80;59.40;;;;;;5016300;28;20433;-63
2022/04/23 05:17:19;;;;;;;7.80;3.72;;;17.80;59.40;;;;;;5012428;28;20442;-63
2022/04/23 05:19:45;;;;;;;7.78;3.53;;;17.90;59.40;;;;;;5012493;28;20040;-63
2022/04/23 05:22:10;;;;;;;7.68;3.45;;;17.80;59.40;;;;;;5017960;28;20104;-63
2022/04/23 05:24:36;;;;;;;8.05;4.13;;;17.80;59.40;;;;;;5021184;28;20398;-63
2022/04/23 05:27:01;;;;;;;7.53;3.70;;;17.80;59.40;;;;;;5020616;28;20490;-63
2022/04/23 05:29:27;;;;;;;9.82;3.63;;;17.80;59.30;;;;;;5017966;28;20515;-63
2022/04/23 05:31:53;;;;;;;6.82;3.40;;;17.80;59.30;;;;;;5013965;28;20061;-63
2022/04/23 05:34:18;;;;;;;8.27;3.47;;;17.80;59.30;;;;;;5020911;28;20105;-63
2022/04/23 05:36:44;;;;;;;7.90;3.40;;;17.80;59.40;;;;;;5016057;28;20066;-63
2022/04/23 05:39:10;;;;;;;8.77;3.38;;;17.80;59.40;;;;;;5018862;28;20025;-63
2022/04/23 05:41:36;;;;;;;8.95;3.60;;;17.80;59.40;;;;;;5018550;28;20048;-63
2022/04/23 05:44:02;;;;;;;9.15;3.40;;;17.80;59.30;;;;;;5014855;28;20524;-63
2022/04/23 05:46:28;;;;;;;7.72;3.70;;;17.80;59.20;;;;;;5016604;28;20475;-63
2022/04/23 05:48:55;;;;;;;8.48;3.80;;;17.80;59.30;;;;;;5021340;28;20164;-64
2022/04/23 05:51:20;;;;;;;9.02;3.40;;;17.80;59.30;;;;;;5017450;28;20026;-63
2022/04/23 05:53:46;;;;;;;8.05;3.40;;;17.80;59.30;;;;;;5018463;28;20036;-63
2022/04/23 05:56:12;;;;;;;9.57;3.33;;;17.80;59.30;;;;;;5019123;28;20032;-63
2022/04/23 05:58:37;;;;;;;8.38;3.78;;;17.80;59.50;;;;;;5022358;28;20109;-64
2022/04/23 06:01:04;;;;;;;7.90;3.30;;;17.70;59.20;;;;;;5017926;28;20560;-63
2022/04/23 06:03:29;;;;;;;7.68;3.47;;;17.70;59.40;;;;;;5022856;28;20072;-63
2022/04/23 06:05:55;;;;;;;10.05;4.05;;;17.70;59.40;;;;;;5022263;28;20056;-63
2022/04/23 06:08:20;;;;;;;6.57;3.20;;;17.70;59.40;;;;;;5022103;28;20037;-63
2022/04/23 06:10:46;;;;;;;8.35;3.50;;;17.70;59.40;;;;;;5015992;28;20030;-63
2022/04/23 06:13:12;;;;;;;8.27;3.65;;;17.70;59.40;;;;;;5024704;28;20021;-63
2022/04/23 06:15:37;;;;;;;9.07;3.42;;;17.80;59.40;;;;;;5018461;28;20037;-63
2022/04/23 06:18:03;;;;;;;8.60;3.58;;;17.70;60.40;;;;;;5014229;28;20417;-63
2022/04/23 06:20:29;;;;;;;10.32;3.80;;;17.70;59.40;;;;;;5021662;28;20026;-63
2022/04/23 06:22:55;;;;;;;8.13;3.55;;;17.70;59.40;;;;;;5021752;28;20038;-63
2022/04/23 06:25:21;;;;;;;7.13;3.60;;;17.70;59.40;;;;;;5023525;28;20096;-63
2022/04/23 06:27:47;;;;;;;7.25;3.10;;;17.70;59.40;;;;;;5021199;28;20383;-63
2022/04/23 06:30:12;;;;;;;7.95;3.50;;;17.70;59.40;;;;;;5018828;28;20021;-63
2022/04/23 06:32:38;;;;;;;6.72;3.30;;;17.70;59.40;;;;;;5016190;28;20033;-63
2022/04/23 06:35:04;;;;;;;8.38;3.42;;;17.70;59.50;;;;;;5021003;28;20044;-63
2022/04/23 06:37:30;;;;;;;6.38;3.20;;;17.70;59.50;;;;;;5019783;28;20091;-63
2022/04/23 06:39:56;;;;;;;9.63;3.92;;;17.70;59.40;;;;;;5020012;28;20437;-63
2022/04/23 06:42:22;;;;;;;8.27;3.60;;;17.70;59.40;;;;;;5022120;28;20038;-63
2022/04/23 06:44:48;;;;;;;7.00;3.10;;;17.70;59.30;;;;;;5022425;28;20026;-63
2022/04/23 06:47:16;;;;;;;11.63;3.60;;;17.70;59.40;;;;;;5017304;28;20048;-63
2022/04/23 06:49:42;;;;;;;16.27;4.00;;;17.70;60.70;;;;;;5018989;28;20025;-63
2022/04/23 06:52:08;;;;;;;12.05;4.07;;;17.70;60.80;;;;;;5020178;28;20044;-63
2022/04/23 06:54:33;;;;;;;10.27;3.63;;;17.70;59.80;;;;;;5014539;28;20029;-64
2022/04/23 06:56:59;;;;;;;11.07;3.78;;;17.70;59.80;;;;;;5020847;28;20402;-64
2022/04/23 06:59:24;;;;;;;10.32;3.80;;;17.70;60.10;;;;;;5013685;28;20363;-64
2022/04/23 07:01:50;;;;;;;15.07;3.97;;;17.70;60.10;;;;;;5018254;28;20026;-63
2022/04/23 07:04:16;;;;;;;13.68;4.20;;;17.70;60.10;;;;;;5023329;28;20056;-64
2022/04/23 07:06:44;;;;;;;19.13;4.18;;;17.70;60.20;;;;;;5021292;28;20394;-63
2022/04/23 07:09:09;;;;;;;14.00;3.90;;;17.70;60.20;;;;;;5023161;28;20320;-64
2022/04/23 07:11:35;;;;;;;11.18;3.97;;;17.70;60.20;;;;;;5020294;28;20636;-64
2022/04/23 07:14:01;;;;;;;11.90;3.60;;;17.70;60.10;;;;;;5019758;28;20079;-64
2022/04/23 07:16:26;;;;;;;11.02;3.72;;;17.70;60.20;;;;;;5019666;28;20410;-63
2022/04/23 07:18:52;;;;;;;12.95;4.13;;;17.80;60.20;;;;;;5023996;28;20061;-63
2022/04/23 07:21:24;;;;;;;25.17;4.43;;;17.80;60.20;;;;;;5017079;28;20034;-63
2022/04/23 07:24:10;;;;;;;13.90;4.47;;;17.80;60.20;;;;;;5020247;28;20033;-63
2022/04/23 07:26:36;;;;;;;11.55;4.38;;;17.80;60.20;;;;;;5018056;28;20062;-63
2022/04/23 07:29:06;;;;;;;14.77;4.25;;;17.80;60.20;;;;;;5022234;28;20268;-63
2022/04/23 07:31:32;;;;;;;11.68;4.28;;;17.80;60.20;;;;;;5020055;28;20087;-63
2022/04/23 07:39:26;;;;;;;11.25;4.40;;;17.80;60.20;;;;;;5017655;28;20037;-63
2022/04/23 07:41:54;;;;;;;13.82;4.53;;;17.80;60.50;;;;;;5021165;28;20037;-63
2022/04/23 07:44:22;;;;;;;11.77;4.25;;;17.80;60.50;;;;;;5018930;28;20499;-64
2022/04/23 07:46:49;;;;;;;9.10;4.35;;;17.70;61.30;;;;;;5016850;28;20029;-63
2022/04/23 07:49:14;;;;;;;14.60;5.25;;;17.80;60.50;;;;;;5012838;28;20041;-63
2022/04/23 07:51:41;;;;;;;11.35;5.18;;;17.70;60.70;;;;;;5011457;28;20517;-63
2022/04/23 07:54:07;;;;;;;11.25;4.72;;;17.80;60.60;;;;;;5017184;28;20026;-64
2022/04/23 07:56:33;;;;;;;12.30;4.72;;;17.80;60.60;;;;;;5014425;28;20044;-63
2022/04/23 07:58:59;;;;;;;12.68;4.97;;;17.80;60.60;;;;;;5016465;28;20025;-63
2022/04/23 08:01:24;;;;;;;16.13;4.97;;;17.70;60.50;;;;;;5018379;28;20044;-63
2022/04/23 08:03:50;;;;;;;13.95;4.82;;;17.70;60.50;;;;;;5013561;28;20042;-64
2022/04/23 08:06:16;;;;;;;12.10;5.00;;;17.70;60.50;;;;;;5022704;28;20022;-64
2022/04/23 08:08:42;;;;;;;12.50;4.63;;;17.80;60.60;;;;;;5016178;28;20064;-63
2022/04/23 08:11:08;;;;;;;13.05;4.72;;;17.70;60.50;;;;;;5020215;28;20136;-63
2022/04/23 08:13:34;;;;;;;15.30;5.15;;;17.80;60.50;;;;;;5026345;28;20124;-63
2022/04/23 08:15:59;;;;;;;13.85;5.00;;;17.80;60.60;;;;;;5022690;28;20030;-64
2022/04/23 08:18:27;;;;;;;12.18;4.50;;;17.80;60.50;;;;;;5011307;28;20037;-63
2022/04/23 08:20:52;;;;;;;12.48;4.70;;;17.70;60.50;;;;;;5013447;28;20517;-64
2022/04/23 08:23:19;;;;;;;10.30;4.43;;;17.80;60.60;;;;;;5013444;28;20030;-64
2022/04/23 08:25:46;;;;;;;12.13;4.80;;;17.70;60.50;;;;;;5020989;28;20040;-64
2022/04/23 08:30:57;;;;;;;14.77;5.30;;;17.70;60.80;;;;;;5018128;28;20028;-64
2022/04/23 08:33:23;;;;;;;13.15;5.25;;;17.80;60.90;;;;;;5017275;28;20031;-63
2022/04/23 08:35:50;;;;;;;12.90;4.82;;;17.80;62.00;;;;;;5023033;28;20021;-63
2022/04/23 08:38:16;;;;;;;10.52;4.40;;;17.80;60.80;;;;;;5016826;28;20034;-63
2022/04/23 08:40:44;;;;;;;10.85;4.45;;;17.80;60.80;;;;;;5015508;28;20247;-63
2022/04/23 08:43:10;;;;;;;12.13;4.72;;;17.80;60.60;;;;;;5030499;28;20311;-63
2022/04/23 08:45:36;;;;;;;12.55;4.88;;;17.90;60.80;;;;;;5020537;28;20293;-64
2022/04/23 08:48:04;;;;;;;13.10;5.13;;;17.90;61.00;;;;;;5018552;28;20132;-63
2022/04/23 08:50:30;;;;;;;11.10;4.47;;;17.90;60.70;;;;;;5021228;28;20395;-63
2022/04/23 08:52:55;;;;;;;10.63;4.28;;;17.90;60.90;;;;;;5017960;28;20025;-63
2022/04/23 08:55:21;;;;;;;16.85;5.30;;;17.90;61.00;;;;;;5028361;28;20474;-63
2022/04/23 08:57:48;;;;;;;11.55;4.75;;;17.90;61.10;;;;;;5016413;28;20053;-64
2022/04/23 09:00:15;;;;;;;13.27;4.88;;;17.90;61.20;;;;;;5018462;28;20117;-63
2022/04/23 09:02:42;;;;;;;9.57;4.47;;;18.00;61.70;;;;;;5017482;28;20041;-63
2022/04/23 09:05:08;;;;;;;14.00;4.93;;;18.00;61.70;;;;;;5018979;28;20029;-63
2022/04/23 09:07:34;;;;;;;12.55;4.43;;;18.00;62.00;;;;;;5018009;28;20037;-63
2022/04/23 09:10:00;;;;;;;12.50;5.03;;;18.00;62.20;;;;;;5012659;28;20470;-64
2022/04/23 09:12:27;;;;;;;13.85;4.70;;;18.00;62.10;;;;;;5015291;28;20030;-64
2022/04/23 09:14:54;;;;;;;15.55;5.45;;;17.90;62.00;;;;;;5014550;28;20406;-64
2022/04/23 09:25:41;;;;;;;15.82;5.57;;;18.00;62.10;;;;;;5012670;28;20032;-63
2022/04/23 09:28:20;;;;;;;11.68;5.13;;;18.00;62.00;;;;;;5013771;28;20494;-64
2022/04/23 09:30:47;;;;;;;11.65;4.70;;;18.00;62.00;;;;;;5017326;28;20467;-63
2022/04/23 09:33:13;;;;;;;12.23;5.10;;;17.90;61.80;;;;;;5017789;28;20026;-63
2022/04/23 09:35:54;;;;;;;12.98;5.35;;;18.00;61.80;;;;;;5017054;28;20116;-64
2022/04/23 09:38:20;;;;;;;12.93;5.50;;;18.00;61.70;;;;;;5020370;28;20034;-63
2022/04/23 09:40:58;;;;;;;16.23;5.50;;;18.00;61.70;;;;;;5022218;28;20533;-63
2022/04/23 09:43:30;;;;;;;11.88;5.13;;;18.10;61.80;;;;;;5014393;28;20180;-63
2022/04/23 09:46:04;;;;;;;12.73;5.00;;;18.10;61.70;;;;;;5016522;28;20033;-63
2022/04/23 09:48:30;;;;;;;14.65;5.22;;;18.00;61.50;;;;;;5019109;28;20095;-63
2022/04/23 09:50:56;;;;;;;10.23;4.70;;;18.10;61.50;;;;;;5017264;28;20029;-64
2022/04/23 09:53:22;;;;;;;12.50;4.85;;;18.20;61.40;;;;;;5018463;28;20382;-64
2022/04/23 09:55:51;;;;;;;12.35;5.20;;;18.10;61.40;;;;;;5023232;28;20029;-63
2022/04/23 09:58:17;;;;;;;11.55;4.90;;;18.10;61.30;;;;;;5014173;28;20025;-64
2022/04/23 10:00:44;;;;;;;16.58;5.18;;;18.20;61.30;;;;;;5016435;28;20544;-64
2022/04/23 10:03:11;;;;;;;14.57;6.00;;;18.20;61.30;;;;;;5014028;28;20041;-64
2022/04/23 10:05:40;;;;;;;12.93;6.32;;;18.20;62.00;;;;;;5019707;28;20121;-64
2022/04/23 10:08:13;;;;;;;14.25;6.35;;;18.30;62.50;;;;;;5020676;28;20037;-63
2022/04/23 10:10:55;;;;;;;14.48;6.05;;;18.30;62.30;;;;;;5021016;28;20068;-63
2022/04/23 10:13:24;;;;;;;17.15;6.78;;;18.30;62.00;;;;;;5049931;28;20040;-63
2022/04/23 10:15:52;;;;;;;19.73;7.95;;;18.30;62.30;;;;;;5015699;28;20121;-63
2022/04/23 10:18:18;;;;;;;21.75;10.07;;;18.30;63.90;;;;;;5014170;28;20025;-63
2022/04/23 10:20:58;;;;;;;21.40;9.55;;;18.30;62.60;;;;;;5015399;28;20426;-63
2022/04/23 10:23:34;;;;;;;32.13;11.10;;;18.30;62.90;;;;;;5013785;28;20132;-63
2022/04/23 10:25:59;;;;;;;26.10;12.00;;;18.30;63.40;;;;;;5019105;28;20138;-63
2022/04/23 10:28:25;;;;;;;36.88;15.93;;;18.30;63.00;;;;;;5021923;28;20131;-64
2022/04/23 10:31:16;;;;;;;29.05;13.45;;;18.30;62.20;;;;;;5013753;28;20109;-64
2022/04/23 10:33:46;;;;;;;30.75;13.68;;;18.30;63.30;;;;;;5018252;28;20091;-63
2022/04/23 10:36:13;;;;;;;31.27;14.05;;;18.30;63.40;;;;;;5020423;28;20029;-63
2022/04/23 10:38:40;;;;;;;35.60;14.20;;;18.30;63.20;;;;;;5017851;28;20029;-64
2022/04/23 10:41:06;;;;;;;35.95;16.38;;;18.40;63.50;;;;;;5023265;28;24143;-64
2022/04/23 10:43:31;;;;;;;32.42;14.43;;;18.30;62.50;;;;;;5020162;28;20053;-63
2022/04/23 10:45:59;;;;;;;31.98;15.05;;;18.30;62.50;;;;;;5019765;28;20508;-63
2022/04/23 10:48:45;;;;;;;35.92;16.08;;;18.30;63.40;;;;;;5037221;28;20121;-63
2022/04/23 10:51:19;;;;;;;34.13;16.75;;;18.30;63.10;;;;;;5016604;28;20014;-63
2022/04/23 10:53:46;;;;;;;30.65;14.77;;;18.30;62.30;;;;;;5018657;28;20064;-63
2022/04/23 10:56:13;;;;;;;34.75;15.75;;;18.30;62.40;;;;;;5015778;28;20069;-63
2022/04/23 10:58:40;;;;;;;33.60;15.55;;;18.30;63.10;;;;;;5018604;28;20330;-63
2022/04/23 11:01:25;;;;;;;34.00;16.60;;;18.30;63.00;;;;;;5020761;28;20038;-62
2022/04/23 11:03:56;;;;;;;33.67;16.50;;;18.30;61.90;;;;;;5021425;28;20041;-63
2022/04/23 11:12:18;;;;;;;28.35;16.08;;;18.30;62.30;;;;;;5023166;28;20036;-63
2022/04/23 11:14:46;;;;;;;32.92;16.05;;;18.30;61.60;;;;;;5018748;28;20042;-63
2022/04/23 11:17:23;;;;;;;33.15;15.73;;;18.30;62.10;;;;;;5019152;28;20398;-63
2022/04/23 11:19:55;;;;;;;32.55;17.05;;;18.30;62.00;;;;;;5015619;28;20493;-64
2022/04/23 11:22:21;;;;;;;30.08;16.30;;;18.30;61.60;;;;;;5020814;28;20029;-63
2022/04/23 11:24:51;;;;;;;32.60;16.88;;;18.30;61.80;;;;;;5017081;28;20034;-63
2022/04/23 11:27:32;;;;;;;32.83;18.48;;;18.30;61.60;;;;;;5019659;28;20025;-63
2022/04/23 11:29:58;;;;;;;35.05;20.23;;;18.30;61.60;;;;;;5021983;28;20486;-64
2022/04/23 11:32:27;;;;;;;33.80;19.05;;;18.30;61.60;;;;;;5050259;28;20087;-63
2022/04/23 11:34:57;;;;;;;36.65;19.15;;;18.30;62.00;;;;;;5015137;28;20040;-63
2022/04/23 11:37:30;;;;;;;33.10;18.02;;;18.20;61.80;;;;;;5017410;28;20025;-64
2022/04/23 11:40:11;;;;;;;33.10;17.67;;;18.30;62.30;;;;;;5020098;28;20525;-63
2022/04/23 11:42:41;;;;;;;32.45;18.67;;;18.30;62.10;;;;;;5016268;28;20041;-63
2022/04/23 11:45:08;;;;;;;29.42;18.55;;;18.40;62.30;;;;;;5017353;28;20116;-64
2022/04/23 11:47:34;;;;;;;33.33;18.92;;;18.40;62.80;;;;;;5022352;28;20053;-63
2022/04/23 11:50:12;;;;;;;36.05;20.13;;;18.50;62.40;;;;;;5015353;28;20030;-63
2022/04/23 11:52:38;;;;;;;37.65;21.30;;;18.50;62.60;;;;;;5018547;28;20029;-64
2022/04/23 11:55:05;;;;;;;40.83;21.50;;;18.60;62.90;;;;;;5016634;28;20065;-63
2022/04/23 11:57:30;;;;;;;44.72;21.15;;;18.60;62.40;;;;;;5020466;28;20022;-63
2022/04/23 12:00:00;;;;;;;40.38;21.75;;;18.60;62.80;;;;;;5054357;28;20099;-64
2022/04/23 12:02:29;;;;;;;36.75;22.35;;;18.70;62.60;;;;;;5017622;28;20029;-63
2022/04/23 12:05:00;;;;;;;40.35;21.73;;;18.70;62.50;;;;;;5047075;28;20042;-63
2022/04/23 12:07:26;;;;;;;32.58;20.10;;;18.70;62.90;;;;;;5016163;28;20095;-63
2022/04/23 12:10:02;;;;;;;36.60;20.90;;;18.70;63.10;;;;;;5016900;28;20027;-63
2022/04/23 12:12:31;;;;;;;36.15;22.55;;;18.70;62.20;;;;;;5014377;28;20037;-63
2022/04/23 12:15:04;;;;;;;31.95;21.35;;;18.70;61.90;;;;;;5021905;28;20490;-63
2022/04/23 12:17:30;;;;;;;39.25;22.58;;;18.70;62.30;;;;;;5017343;28;20132;-63
2022/04/23 12:19:58;;;;;;;37.67;21.85;;;18.80;62.20;;;;;;5019290;28;20037;-63
2022/04/23 12:22:27;;;;;;;37.35;24.00;;;18.80;61.60;;;;;;5023540;28;20033;-63
2022/04/23 12:25:18;;;;;;;44.58;24.88;;;18.90;61.70;;;;;;5022356;28;20407;-63
2022/04/23 12:27:53;;;;;;;37.38;24.05;;;18.80;61.50;;;;;;5020695;28;20041;-63
2022/04/23 12:41:36;;;;;;;37.00;22.35;;;18.90;60.80;;;;;;5017007;28;20024;-63
2022/04/23 12:44:19;;;;;;;32.15;22.75;;;19.00;60.90;;;;;;5020652;28;20064;-63
2022/04/23 12:46:58;;;;;;;38.50;22.50;;;19.00;60.80;;;;;;5011988;28;20057;-63
2022/04/23 12:49:24;;;;;;;35.05;23.23;;;19.00;60.80;;;;;;5021207;28;20108;-63
2022/04/23 12:51:53;;;;;;;36.50;23.48;;;19.00;60.20;;;;;;5017325;28;20026;-63
2022/04/23 12:54:21;;;;;;;37.15;23.60;;;19.00;60.10;;;;;;5020761;28;20541;-63
2022/04/23 12:56:48;;;;;;;33.90;23.52;;;19.00;59.60;;;;;;5016564;28;20489;-63
2022/04/23 12:59:14;;;;;;;36.78;24.58;;;19.00;59.90;;;;;;5017618;28;20376;-63
2022/04/23 13:01:39;;;;;;;36.97;24.58;;;19.00;59.80;;;;;;5018423;28;20036;-64
2022/04/23 13:04:08;;;;;;;36.92;23.45;;;19.00;59.80;;;;;;5020196;28;20046;-63
2022/04/23 13:09:18;;;;;;;37.45;25.38;;;19.00;59.70;;;;;;5020132;28;20038;-63
2022/04/23 13:11:44;;;;;;;38.38;24.42;;;19.10;59.60;;;;;;5026394;28;20033;-63
2022/04/23 13:14:09;;;;;;;34.72;24.52;;;19.10;59.60;;;;;;5016687;28;20394;-63
2022/04/23 13:16:36;;;;;;;38.63;24.20;;;19.10;59.60;;;;;;5015204;28;20122;-63
2022/04/23 13:19:03;;;;;;;37.42;24.00;;;19.10;59.70;;;;;;5019787;28;20055;-63
2022/04/23 13:21:30;;;;;;;35.53;23.15;;;19.20;59.70;;;;;;5017027;28;20033;-63